Terminal Aerodrome Forecast
Issued by NWS Portland, ME

Home | Current Version | Previous Version | Text Only | Print | Product List | Glossary On
Versions: 1 2 3 4 5 6 7 8 9 10 11 12 13 14 15 16
476
FTUS41 KGYX 261722
TAFPWM
TAF
KPWM 261722Z 2618/2718 19007KT P6SM SCT250
     FM271000 20007KT P6SM -SHRA SCT025 BKN050 OVC100
     FM271300 23006KT 5SM -SHRA BR BKN010 OVC025
     FM271700 31006KT P6SM SCT025=

USA.gov is the U.S. government's official web portal to all federal, state and local government web resources and services.